This is the latest recevied weather packets stored in our database for station/object VK4ZPK-13. If no packets are shown the sender has not sent any weather packets the latest 10 day(s).
| Time | Temp. | Humidity | Pressure | Rain* | Wind** | Luminosity | Snow |
|---|---|---|---|---|---|---|---|
| 1777386057 | 17.78° C | 93% | 1017.8 hPa | 0 mm | - | - | - |
| 1777384257 | 17.78° C | 93% | 1018 hPa | 0 mm | - | - | - |
| 1777382457 | 18.33° C | 93% | 1018.3 hPa | 0 mm | - | - | - |
| 1777380657 | 18.33° C | 92% | 1018.4 hPa | 0 mm | - | - | - |
| 1777378857 | 18.33° C | 92% | 1018.5 hPa | 0 mm | - | - | - |
| 1777377057 | 18.89° C | 92% | 1018.5 hPa | 0 mm | - | - | - |
| 1777375257 | 18.89° C | 91% | 1018.6 hPa | 0 mm | - | - | - |
| 1777373457 | 18.89° C | 91% | 1018.6 hPa | 0 mm | - | - | - |
| 1777371657 | 19.44° C | 90% | 1018.6 hPa | 0 mm | - | - | - |
| 1777369857 | 19.44° C | 89% | 1018.5 hPa | 0 mm | - | - | - |
| 1777368057 | 19.44° C | 88% | 1018.2 hPa | 0 mm | - | - | - |
| 1777366257 | 20° C | 87% | 1017.8 hPa | 0 mm | - | - | - |
| 1777364457 | 20.56° C | 85% | 1017.3 hPa | 0 mm | - | - | - |
| 1777362657 | 21.67° C | 80% | 1017.1 hPa | 0 mm | - | - | - |
| 1777360857 | 22.22° C | 78% | 1016.9 hPa | 0 mm | - | - | - |
| 1777359057 | 22.78° C | 76% | 1016.5 hPa | 0 mm | - | - | - |
| 1777357257 | 23.33° C | 75% | 1016.2 hPa | 0 mm | - | - | - |
| 1777355457 | 23.89° C | 72% | 1015.9 hPa | 0 mm | - | - | - |
| 1777353657 | 23.89° C | 70% | 1015.8 hPa | 0 mm | - | - | - |
| 1777351857 | 23.89° C | 69% | 1015.6 hPa | 0 mm | - | - | - |
| 1777350057 | 24.44° C | 64% | 1015.5 hPa | 0 mm | - | - | - |
| 1777348257 | 24.44° C | 68% | 1015.4 hPa | 0 mm | - | - | - |
| 1777346457 | 24.44° C | 73% | 1015.6 hPa | 0 mm | - | - | - |
| 1777344657 | 23.89° C | 74% | 1015.9 hPa | 0 mm | - | - | - |
| 1777342857 | 23.33° C | 80% | 1016.4 hPa | 0 mm | - | - | - |
* Rain latest hour (hover to see other rain measurements)
** Current wind speed in m/s (hover to see current wind gust speed)